sensor_id;sensor_type;location;lat;lon;timestamp;P1;durP1;ratioP1;P2;durP2;ratioP2
41667;SDS011;27356;50.920;5.350;2023-01-29T05:55:02;77.32;;;29.20;;
41667;SDS011;27356;50.920;5.350;2023-01-29T05:57:28;80.93;;;30.48;;
41667;SDS011;27356;50.920;5.350;2023-01-29T05:59:54;83.55;;;32.05;;
41667;SDS011;27356;50.920;5.350;2023-01-29T06:02:19;82.45;;;31.50;;
41667;SDS011;27356;50.920;5.350;2023-01-29T06:04:45;86.15;;;32.00;;
41667;SDS011;27356;50.920;5.350;2023-01-29T06:07:11;86.97;;;30.75;;
41667;SDS011;27356;50.920;5.350;2023-01-29T06:09:36;101.75;;;33.92;;
41667;SDS011;27356;50.920;5.350;2023-01-29T06:12:02;87.43;;;32.03;;
41667;SDS011;27356;50.920;5.350;2023-01-29T06:14:30;86.05;;;31.63;;
41667;SDS011;27356;50.920;5.350;2023-01-29T06:16:56;83.85;;;29.75;;
41667;SDS011;27356;50.920;5.350;2023-01-29T06:19:21;88.25;;;33.25;;
41667;SDS011;27356;50.920;5.350;2023-01-29T06:21:47;95.97;;;31.98;;
41667;SDS011;27356;50.920;5.350;2023-01-29T06:24:13;95.45;;;34.03;;
41667;SDS011;27356;50.920;5.350;2023-01-29T06:26:38;103.80;;;34.53;;
41667;SDS011;27356;50.920;5.350;2023-01-29T06:29:07;100.82;;;35.13;;
41667;SDS011;27356;50.920;5.350;2023-01-29T06:31:32;95.18;;;32.83;;
41667;SDS011;27356;50.920;5.350;2023-01-29T06:33:58;96.00;;;32.80;;
41667;SDS011;27356;50.920;5.350;2023-01-29T06:36:24;90.22;;;32.45;;
41667;SDS011;27356;50.920;5.350;2023-01-29T06:38:49;82.18;;;30.52;;
41667;SDS011;27356;50.920;5.350;2023-01-29T06:41:16;74.32;;;29.58;;
41667;SDS011;27356;50.920;5.350;2023-01-29T06:43:43;75.50;;;30.65;;
41667;SDS011;27356;50.920;5.350;2023-01-29T06:46:09;73.00;;;29.42;;
41667;SDS011;27356;50.920;5.350;2023-01-29T06:48:35;72.78;;;30.17;;
41667;SDS011;27356;50.920;5.350;2023-01-29T06:51:01;67.45;;;30.27;;
41667;SDS011;27356;50.920;5.350;2023-01-29T06:53:32;65.28;;;28.83;;
41667;SDS011;27356;50.920;5.350;2023-01-29T06:55:58;67.15;;;28.80;;
41667;SDS011;27356;50.920;5.350;2023-01-29T06:58:27;73.25;;;29.77;;
41667;SDS011;27356;50.920;5.350;2023-01-29T07:00:53;65.30;;;29.80;;
41667;SDS011;27356;50.920;5.350;2023-01-29T07:03:18;66.85;;;29.35;;
41667;SDS011;27356;50.920;5.350;2023-01-29T07:05:51;67.88;;;29.88;;
41667;SDS011;27356;50.920;5.350;2023-01-29T07:08:18;73.65;;;31.08;;
41667;SDS011;27356;50.920;5.350;2023-01-29T07:10:46;66.72;;;29.02;;
41667;SDS011;27356;50.920;5.350;2023-01-29T07:13:12;73.13;;;31.15;;
41667;SDS011;27356;50.920;5.350;2023-01-29T07:15:38;72.65;;;31.58;;
41667;SDS011;27356;50.920;5.350;2023-01-29T07:18:04;70.90;;;29.98;;
41667;SDS011;27356;50.920;5.350;2023-01-29T07:20:36;76.68;;;31.45;;
41667;SDS011;27356;50.920;5.350;2023-01-29T07:23:03;69.25;;;30.55;;
41667;SDS011;27356;50.920;5.350;2023-01-29T07:25:28;78.93;;;31.30;;
41667;SDS011;27356;50.920;5.350;2023-01-29T07:27:54;71.63;;;30.50;;
41667;SDS011;27356;50.920;5.350;2023-01-29T07:30:20;75.10;;;31.17;;
41667;SDS011;27356;50.920;5.350;2023-01-29T07:32:46;77.97;;;31.02;;
41667;SDS011;27356;50.920;5.350;2023-01-29T07:35:12;70.07;;;29.65;;
41667;SDS011;27356;50.920;5.350;2023-01-29T07:37:37;71.50;;;30.98;;
41667;SDS011;27356;50.920;5.350;2023-01-29T07:40:03;71.28;;;30.38;;
41667;SDS011;27356;50.920;5.350;2023-01-29T07:42:34;72.70;;;30.65;;
41667;SDS011;27356;50.920;5.350;2023-01-29T07:45:00;68.05;;;28.67;;
41667;SDS011;27356;50.920;5.350;2023-01-29T07:47:26;66.85;;;29.15;;
41667;SDS011;27356;50.920;5.350;2023-01-29T07:49:51;71.32;;;30.73;;
41667;SDS011;27356;50.920;5.350;2023-01-29T07:52:17;64.72;;;29.13;;
41667;SDS011;27356;50.920;5.350;2023-01-29T07:54:43;69.43;;;30.00;;
41667;SDS011;27356;50.920;5.350;2023-01-29T07:57:08;64.03;;;29.02;;
41667;SDS011;27356;50.920;5.350;2023-01-29T07:59:34;70.40;;;29.65;;
41667;SDS011;27356;50.920;5.350;2023-01-29T08:01:59;67.22;;;29.08;;
41667;SDS011;27356;50.920;5.350;2023-01-29T08:04:25;69.05;;;29.52;;
41667;SDS011;27356;50.920;5.350;2023-01-29T08:06:51;68.88;;;30.67;;
41667;SDS011;27356;50.920;5.350;2023-01-29T08:09:16;72.85;;;31.95;;
41667;SDS011;27356;50.920;5.350;2023-01-29T08:11:42;70.13;;;30.90;;
41667;SDS011;27356;50.920;5.350;2023-01-29T08:14:08;68.88;;;31.13;;
41667;SDS011;27356;50.920;5.350;2023-01-29T08:16:34;72.85;;;29.02;;
41667;SDS011;27356;50.920;5.350;2023-01-29T08:19:00;72.50;;;32.53;;
41667;SDS011;27356;50.920;5.350;2023-01-29T08:21:26;70.70;;;29.88;;
41667;SDS011;27356;50.920;5.350;2023-01-29T08:23:52;69.50;;;31.40;;
41667;SDS011;27356;50.920;5.350;2023-01-29T08:26:18;65.40;;;30.05;;
41667;SDS011;27356;50.920;5.350;2023-01-29T08:28:44;68.60;;;31.77;;
41667;SDS011;27356;50.920;5.350;2023-01-29T08:31:17;72.60;;;30.65;;
41667;SDS011;27356;50.920;5.350;2023-01-29T08:33:46;70.95;;;30.10;;
41667;SDS011;27356;50.920;5.350;2023-01-29T08:36:12;69.28;;;31.23;;
41667;SDS011;27356;50.920;5.350;2023-01-29T08:38:40;66.15;;;29.88;;
41667;SDS011;27356;50.920;5.350;2023-01-29T08:41:06;67.78;;;29.38;;
41667;SDS011;27356;50.920;5.350;2023-01-29T08:43:32;66.47;;;30.40;;
41667;SDS011;27356;50.920;5.350;2023-01-29T08:46:01;70.13;;;29.75;;
41667;SDS011;27356;50.920;5.350;2023-01-29T08:48:28;68.35;;;29.60;;
41667;SDS011;27356;50.920;5.350;2023-01-29T08:50:56;67.45;;;30.10;;
41667;SDS011;27356;50.920;5.350;2023-01-29T08:53:22;69.30;;;31.17;;
41667;SDS011;27356;50.920;5.350;2023-01-29T08:55:49;73.05;;;32.38;;
41667;SDS011;27356;50.920;5.350;2023-01-29T08:58:14;65.85;;;30.80;;
41667;SDS011;27356;50.920;5.350;2023-01-29T09:00:40;65.03;;;28.63;;
41667;SDS011;27356;50.920;5.350;2023-01-29T09:03:06;71.32;;;30.42;;
41667;SDS011;27356;50.920;5.350;2023-01-29T09:05:33;70.18;;;30.42;;
41667;SDS011;27356;50.920;5.350;2023-01-29T09:07:59;67.80;;;29.83;;
41667;SDS011;27356;50.920;5.350;2023-01-29T09:10:25;65.03;;;30.08;;
41667;SDS011;27356;50.920;5.350;2023-01-29T09:12:51;68.40;;;30.80;;
41667;SDS011;27356;50.920;5.350;2023-01-29T09:15:17;66.55;;;30.67;;
41667;SDS011;27356;50.920;5.350;2023-01-29T09:17:42;62.35;;;28.48;;
41667;SDS011;27356;50.920;5.350;2023-01-29T09:20:08;63.17;;;29.33;;
41667;SDS011;27356;50.920;5.350;2023-01-29T09:22:34;68.85;;;32.22;;
41667;SDS011;27356;50.920;5.350;2023-01-29T09:25:00;62.80;;;29.35;;
41667;SDS011;27356;50.920;5.350;2023-01-29T09:27:26;57.38;;;27.58;;
41667;SDS011;27356;50.920;5.350;2023-01-29T09:29:52;68.80;;;30.58;;
41667;SDS011;27356;50.920;5.350;2023-01-29T09:32:18;68.40;;;32.00;;
41667;SDS011;27356;50.920;5.350;2023-01-29T09:34:43;67.32;;;30.88;;
41667;SDS011;27356;50.920;5.350;2023-01-29T09:37:09;74.15;;;30.58;;
41667;SDS011;27356;50.920;5.350;2023-01-29T09:39:34;62.95;;;29.40;;
41667;SDS011;27356;50.920;5.350;2023-01-29T09:44:38;64.25;;;30.33;;
41667;SDS011;27356;50.920;5.350;2023-01-29T09:47:19;64.55;;;30.90;;
41667;SDS011;27356;50.920;5.350;2023-01-29T09:49:50;63.78;;;28.83;;
41667;SDS011;27356;50.920;5.350;2023-01-29T09:57:33;60.30;;;29.20;;
41667;SDS011;27356;50.920;5.350;2023-01-29T10:00:00;60.42;;;29.30;;
41667;SDS011;27356;50.920;5.350;2023-01-29T10:08:02;62.05;;;28.27;;
41667;SDS011;27356;50.920;5.350;2023-01-29T10:27:14;59.70;;;28.48;;
41667;SDS011;27356;50.920;5.350;2023-01-29T10:29:41;54.65;;;25.63;;
41667;SDS011;27356;50.920;5.350;2023-01-29T10:32:10;60.85;;;28.27;;
41667;SDS011;27356;50.920;5.350;2023-01-29T10:37:25;53.00;;;25.95;;
41667;SDS011;27356;50.920;5.350;2023-01-29T10:40:15;55.20;;;27.15;;
41667;SDS011;27356;50.920;5.350;2023-01-29T10:43:04;56.30;;;27.92;;
41667;SDS011;27356;50.920;5.350;2023-01-29T10:45:54;58.47;;;27.98;;
41667;SDS011;27356;50.920;5.350;2023-01-29T10:48:38;50.78;;;27.30;;
41667;SDS011;27356;50.920;5.350;2023-01-29T10:54:09;60.10;;;28.83;;
41667;SDS011;27356;50.920;5.350;2023-01-29T10:56:42;56.97;;;28.08;;
41667;SDS011;27356;50.920;5.350;2023-01-29T11:02:46;54.20;;;26.80;;
41667;SDS011;27356;50.920;5.350;2023-01-29T11:05:21;51.08;;;25.63;;
41667;SDS011;27356;50.920;5.350;2023-01-29T11:08:05;49.80;;;25.48;;
41667;SDS011;27356;50.920;5.350;2023-01-29T11:10:36;52.55;;;26.08;;
41667;SDS011;27356;50.920;5.350;2023-01-29T11:13:10;50.58;;;25.95;;
41667;SDS011;27356;50.920;5.350;2023-01-29T11:15:38;52.60;;;26.20;;
41667;SDS011;27356;50.920;5.350;2023-01-29T11:20:40;48.60;;;24.63;;
41667;SDS011;27356;50.920;5.350;2023-01-29T11:25:56;53.80;;;25.63;;
41667;SDS011;27356;50.920;5.350;2023-01-29T11:31:16;52.50;;;25.20;;
41667;SDS011;27356;50.920;5.350;2023-01-29T11:34:04;44.15;;;23.75;;
41667;SDS011;27356;50.920;5.350;2023-01-29T11:36:37;48.00;;;24.88;;
41667;SDS011;27356;50.920;5.350;2023-01-29T11:39:14;50.05;;;24.83;;
41667;SDS011;27356;50.920;5.350;2023-01-29T11:41:48;50.15;;;25.10;;
41667;SDS011;27356;50.920;5.350;2023-01-29T11:44:21;47.15;;;25.17;;
41667;SDS011;27356;50.920;5.350;2023-01-29T11:46:53;43.53;;;23.35;;
41667;SDS011;27356;50.920;5.350;2023-01-29T11:49:22;47.47;;;24.75;;
41667;SDS011;27356;50.920;5.350;2023-01-29T11:51:56;52.15;;;24.33;;
41667;SDS011;27356;50.920;5.350;2023-01-29T11:54:30;47.45;;;25.02;;
41667;SDS011;27356;50.920;5.350;2023-01-29T11:56:59;47.38;;;24.30;;
41667;SDS011;27356;50.920;5.350;2023-01-29T12:04:54;46.28;;;23.38;;
41667;SDS011;27356;50.920;5.350;2023-01-29T12:07:26;49.38;;;24.60;;
41667;SDS011;27356;50.920;5.350;2023-01-29T12:09:54;51.60;;;25.67;;
41667;SDS011;27356;50.920;5.350;2023-01-29T12:12:28;50.80;;;24.85;;
41667;SDS011;27356;50.920;5.350;2023-01-29T12:15:01;45.05;;;23.10;;
41667;SDS011;27356;50.920;5.350;2023-01-29T12:17:29;45.28;;;23.33;;
41667;SDS011;27356;50.920;5.350;2023-01-29T12:20:01;49.80;;;24.00;;
41667;SDS011;27356;50.920;5.350;2023-01-29T12:25:10;52.10;;;24.83;;
41667;SDS011;27356;50.920;5.350;2023-01-29T12:35:47;49.28;;;23.88;;
41667;SDS011;27356;50.920;5.350;2023-01-29T12:38:22;47.13;;;23.83;;
41667;SDS011;27356;50.920;5.350;2023-01-29T12:41:07;51.88;;;25.40;;
41667;SDS011;27356;50.920;5.350;2023-01-29T12:44:10;52.08;;;24.98;;
41667;SDS011;27356;50.920;5.350;2023-01-29T12:49:15;52.20;;;24.48;;
41667;SDS011;27356;50.920;5.350;2023-01-29T12:51:52;50.70;;;24.88;;
41667;SDS011;27356;50.920;5.350;2023-01-29T12:54:34;51.70;;;27.23;;
41667;SDS011;27356;50.920;5.350;2023-01-29T12:57:06;53.80;;;26.75;;
41667;SDS011;27356;50.920;5.350;2023-01-29T12:59:45;54.42;;;25.98;;
41667;SDS011;27356;50.920;5.350;2023-01-29T13:05:33;53.05;;;25.05;;
41667;SDS011;27356;50.920;5.350;2023-01-29T13:07:58;60.70;;;26.50;;
41667;SDS011;27356;50.920;5.350;2023-01-29T13:10:31;61.92;;;25.30;;
41667;SDS011;27356;50.920;5.350;2023-01-29T13:13:03;51.78;;;24.63;;
41667;SDS011;27356;50.920;5.350;2023-01-29T13:15:43;45.90;;;23.07;;
41667;SDS011;27356;50.920;5.350;2023-01-29T13:20:47;46.05;;;21.65;;
41667;SDS011;27356;50.920;5.350;2023-01-29T13:23:16;39.95;;;20.98;;
41667;SDS011;27356;50.920;5.350;2023-01-29T13:25:52;39.08;;;20.33;;
41667;SDS011;27356;50.920;5.350;2023-01-29T13:28:18;42.58;;;21.15;;
41667;SDS011;27356;50.920;5.350;2023-01-29T13:31:07;39.38;;;20.73;;
41667;SDS011;27356;50.920;5.350;2023-01-29T13:33:43;35.70;;;19.38;;
41667;SDS011;27356;50.920;5.350;2023-01-29T13:36:43;35.95;;;18.50;;
41667;SDS011;27356;50.920;5.350;2023-01-29T13:39:24;35.30;;;17.92;;
41667;SDS011;27356;50.920;5.350;2023-01-29T13:41:51;37.40;;;17.65;;
41667;SDS011;27356;50.920;5.350;2023-01-29T13:44:20;36.28;;;17.73;;
41667;SDS011;27356;50.920;5.350;2023-01-29T13:47:00;36.53;;;18.30;;
41667;SDS011;27356;50.920;5.350;2023-01-29T13:52:18;38.60;;;20.55;;
41667;SDS011;27356;50.920;5.350;2023-01-29T13:57:33;39.13;;;18.92;;
41667;SDS011;27356;50.920;5.350;2023-01-29T14:00:53;36.55;;;19.10;;
41667;SDS011;27356;50.920;5.350;2023-01-29T14:10:41;35.80;;;19.17;;
41667;SDS011;27356;50.920;5.350;2023-01-29T14:15:42;39.83;;;20.88;;
41667;SDS011;27356;50.920;5.350;2023-01-29T14:18:24;36.53;;;20.77;;
41667;SDS011;27356;50.920;5.350;2023-01-29T14:20:55;39.78;;;21.02;;
41667;SDS011;27356;50.920;5.350;2023-01-29T14:25:52;42.17;;;20.75;;
41667;SDS011;27356;50.920;5.350;2023-01-29T14:28:22;39.80;;;20.00;;
41667;SDS011;27356;50.920;5.350;2023-01-29T14:30:52;42.10;;;21.23;;
41667;SDS011;27356;50.920;5.350;2023-01-29T14:33:23;39.20;;;20.88;;
41667;SDS011;27356;50.920;5.350;2023-01-29T14:35:51;38.22;;;20.60;;
41667;SDS011;27356;50.920;5.350;2023-01-29T14:38:20;35.67;;;20.50;;
41667;SDS011;27356;50.920;5.350;2023-01-29T14:40:48;36.97;;;20.48;;
41667;SDS011;27356;50.920;5.350;2023-01-29T14:43:15;36.08;;;20.00;;
41667;SDS011;27356;50.920;5.350;2023-01-29T14:45:44;35.58;;;19.77;;
41667;SDS011;27356;50.920;5.350;2023-01-29T14:50:47;33.00;;;18.67;;
41667;SDS011;27356;50.920;5.350;2023-01-29T14:53:26;40.63;;;20.38;;
41667;SDS011;27356;50.920;5.350;2023-01-29T14:58:50;41.28;;;20.45;;
41667;SDS011;27356;50.920;5.350;2023-01-29T15:01:27;42.10;;;21.95;;
41667;SDS011;27356;50.920;5.350;2023-01-29T15:04:03;37.17;;;20.17;;
41667;SDS011;27356;50.920;5.350;2023-01-29T15:06:40;40.88;;;22.35;;
41667;SDS011;27356;50.920;5.350;2023-01-29T15:09:17;39.35;;;20.40;;
41667;SDS011;27356;50.920;5.350;2023-01-29T15:11:55;40.97;;;21.43;;
41667;SDS011;27356;50.920;5.350;2023-01-29T15:14:31;40.08;;;21.23;;
41667;SDS011;27356;50.920;5.350;2023-01-29T15:17:06;38.13;;;21.40;;
41667;SDS011;27356;50.920;5.350;2023-01-29T15:19:52;37.75;;;21.15;;
41667;SDS011;27356;50.920;5.350;2023-01-29T15:22:18;41.17;;;21.45;;
41667;SDS011;27356;50.920;5.350;2023-01-29T15:24:46;38.95;;;21.58;;
41667;SDS011;27356;50.920;5.350;2023-01-29T15:27:25;45.70;;;22.63;;
41667;SDS011;27356;50.920;5.350;2023-01-29T15:29:59;36.05;;;20.75;;
41667;SDS011;27356;50.920;5.350;2023-01-29T15:32:36;36.97;;;21.80;;
41667;SDS011;27356;50.920;5.350;2023-01-29T15:35:14;36.95;;;20.25;;
41667;SDS011;27356;50.920;5.350;2023-01-29T15:38:01;37.30;;;20.50;;
41667;SDS011;27356;50.920;5.350;2023-01-29T15:40:30;35.75;;;20.25;;
41667;SDS011;27356;50.920;5.350;2023-01-29T15:42:56;38.47;;;20.35;;
41667;SDS011;27356;50.920;5.350;2023-01-29T15:45:31;39.90;;;20.80;;
41667;SDS011;27356;50.920;5.350;2023-01-29T15:47:59;44.05;;;22.58;;
41667;SDS011;27356;50.920;5.350;2023-01-29T15:50:31;41.03;;;21.65;;
41667;SDS011;27356;50.920;5.350;2023-01-29T15:53:01;42.08;;;21.50;;
41667;SDS011;27356;50.920;5.350;2023-01-29T15:55:30;40.58;;;21.20;;
41667;SDS011;27356;50.920;5.350;2023-01-29T15:57:57;38.50;;;21.58;;
41667;SDS011;27356;50.920;5.350;2023-01-29T16:00:25;37.13;;;20.38;;
41667;SDS011;27356;50.920;5.350;2023-01-29T16:02:54;40.13;;;20.48;;
41667;SDS011;27356;50.920;5.350;2023-01-29T16:05:41;39.85;;;19.92;;
41667;SDS011;27356;50.920;5.350;2023-01-29T16:08:08;37.63;;;20.50;;
41667;SDS011;27356;50.920;5.350;2023-01-29T16:10:40;37.55;;;20.55;;
41667;SDS011;27356;50.920;5.350;2023-01-29T16:13:20;46.10;;;21.98;;
41667;SDS011;27356;50.920;5.350;2023-01-29T16:18:45;38.10;;;21.08;;
41667;SDS011;27356;50.920;5.350;2023-01-29T16:21:14;42.13;;;20.75;;
41667;SDS011;27356;50.920;5.350;2023-01-29T16:24:04;37.70;;;21.95;;
41667;SDS011;27356;50.920;5.350;2023-01-29T16:26:38;36.80;;;19.58;;
41667;SDS011;27356;50.920;5.350;2023-01-29T16:29:08;35.42;;;20.30;;
41667;SDS011;27356;50.920;5.350;2023-01-29T16:31:40;42.85;;;21.52;;
41667;SDS011;27356;50.920;5.350;2023-01-29T16:34:31;37.25;;;20.45;;
41667;SDS011;27356;50.920;5.350;2023-01-29T16:36:59;36.75;;;20.38;;
41667;SDS011;27356;50.920;5.350;2023-01-29T16:39:48;40.53;;;21.38;;
41667;SDS011;27356;50.920;5.350;2023-01-29T16:47:26;39.80;;;20.83;;
41667;SDS011;27356;50.920;5.350;2023-01-29T16:53:12;36.28;;;21.00;;
41667;SDS011;27356;50.920;5.350;2023-01-29T16:55:47;35.08;;;20.02;;
41667;SDS011;27356;50.920;5.350;2023-01-29T16:58:25;35.80;;;20.05;;
41667;SDS011;27356;50.920;5.350;2023-01-29T17:01:05;38.40;;;19.95;;
41667;SDS011;27356;50.920;5.350;2023-01-29T17:03:33;34.25;;;20.10;;
41667;SDS011;27356;50.920;5.350;2023-01-29T17:06:17;36.33;;;19.92;;
41667;SDS011;27356;50.920;5.350;2023-01-29T17:08:49;35.55;;;19.15;;
41667;SDS011;27356;50.920;5.350;2023-01-29T17:11:35;33.72;;;18.65;;
41667;SDS011;27356;50.920;5.350;2023-01-29T17:14:04;34.85;;;18.30;;
41667;SDS011;27356;50.920;5.350;2023-01-29T17:16:32;36.78;;;19.80;;
41667;SDS011;27356;50.920;5.350;2023-01-29T17:19:10;32.92;;;18.13;;
41667;SDS011;27356;50.920;5.350;2023-01-29T17:21:41;36.08;;;19.30;;
41667;SDS011;27356;50.920;5.350;2023-01-29T17:24:07;31.85;;;18.33;;
41667;SDS011;27356;50.920;5.350;2023-01-29T17:26:34;32.05;;;18.27;;
41667;SDS011;27356;50.920;5.350;2023-01-29T17:29:01;32.85;;;18.45;;
41667;SDS011;27356;50.920;5.350;2023-01-29T17:31:26;33.45;;;19.27;;
41667;SDS011;27356;50.920;5.350;2023-01-29T17:33:52;32.63;;;18.02;;
41667;SDS011;27356;50.920;5.350;2023-01-29T17:36:21;35.42;;;19.55;;
41667;SDS011;27356;50.920;5.350;2023-01-29T17:38:47;31.83;;;18.45;;
41667;SDS011;27356;50.920;5.350;2023-01-29T17:41:14;35.88;;;19.00;;
41667;SDS011;27356;50.920;5.350;2023-01-29T17:43:45;33.03;;;19.20;;
41667;SDS011;27356;50.920;5.350;2023-01-29T17:46:12;35.13;;;19.25;;
41667;SDS011;27356;50.920;5.350;2023-01-29T17:48:40;30.90;;;17.92;;
41667;SDS011;27356;50.920;5.350;2023-01-29T17:51:13;31.35;;;18.38;;
41667;SDS011;27356;50.920;5.350;2023-01-29T17:53:41;33.38;;;18.90;;
41667;SDS011;27356;50.920;5.350;2023-01-29T17:56:17;34.75;;;18.80;;
41667;SDS011;27356;50.920;5.350;2023-01-29T17:58:51;36.67;;;18.63;;
41667;SDS011;27356;50.920;5.350;2023-01-29T18:01:17;34.70;;;18.60;;
41667;SDS011;27356;50.920;5.350;2023-01-29T18:03:42;36.03;;;19.25;;
41667;SDS011;27356;50.920;5.350;2023-01-29T18:06:17;35.88;;;19.15;;
41667;SDS011;27356;50.920;5.350;2023-01-29T18:08:51;37.35;;;19.52;;
41667;SDS011;27356;50.920;5.350;2023-01-29T18:11:16;34.30;;;19.35;;
41667;SDS011;27356;50.920;5.350;2023-01-29T18:13:42;38.00;;;20.20;;
41667;SDS011;27356;50.920;5.350;2023-01-29T18:16:08;35.45;;;19.85;;
41667;SDS011;27356;50.920;5.350;2023-01-29T18:18:37;39.78;;;21.33;;
41667;SDS011;27356;50.920;5.350;2023-01-29T18:21:11;36.80;;;19.63;;
41667;SDS011;27356;50.920;5.350;2023-01-29T18:23:37;36.92;;;19.75;;
41667;SDS011;27356;50.920;5.350;2023-01-29T18:26:02;38.03;;;20.23;;
41667;SDS011;27356;50.920;5.350;2023-01-29T18:28:28;41.30;;;20.58;;
41667;SDS011;27356;50.920;5.350;2023-01-29T18:30:55;39.80;;;20.20;;
41667;SDS011;27356;50.920;5.350;2023-01-29T18:33:24;38.38;;;20.13;;
41667;SDS011;27356;50.920;5.350;2023-01-29T18:35:49;37.88;;;19.17;;
41667;SDS011;27356;50.920;5.350;2023-01-29T18:38:15;37.33;;;20.88;;
41667;SDS011;27356;50.920;5.350;2023-01-29T18:40:41;36.55;;;20.02;;
41667;SDS011;27356;50.920;5.350;2023-01-29T18:43:07;39.67;;;20.05;;
41667;SDS011;27356;50.920;5.350;2023-01-29T18:45:33;35.72;;;19.58;;
41667;SDS011;27356;50.920;5.350;2023-01-29T18:47:59;38.63;;;20.83;;
41667;SDS011;27356;50.920;5.350;2023-01-29T18:50:25;39.75;;;20.17;;
41667;SDS011;27356;50.920;5.350;2023-01-29T18:52:52;38.33;;;20.27;;
41667;SDS011;27356;50.920;5.350;2023-01-29T18:55:18;37.15;;;20.23;;
41667;SDS011;27356;50.920;5.350;2023-01-29T18:57:43;37.65;;;19.45;;
41667;SDS011;27356;50.920;5.350;2023-01-29T19:00:09;38.83;;;19.75;;
41667;SDS011;27356;50.920;5.350;2023-01-29T19:02:36;34.80;;;19.33;;
41667;SDS011;27356;50.920;5.350;2023-01-29T19:05:01;35.72;;;20.00;;
41667;SDS011;27356;50.920;5.350;2023-01-29T19:07:27;40.10;;;20.02;;
41667;SDS011;27356;50.920;5.350;2023-01-29T19:09:53;37.08;;;19.58;;
41667;SDS011;27356;50.920;5.350;2023-01-29T19:12:20;35.80;;;20.63;;
41667;SDS011;27356;50.920;5.350;2023-01-29T19:14:47;35.97;;;19.40;;
41667;SDS011;27356;50.920;5.350;2023-01-29T19:17:12;36.15;;;19.23;;
41667;SDS011;27356;50.920;5.350;2023-01-29T19:19:38;41.47;;;20.67;;
41667;SDS011;27356;50.920;5.350;2023-01-29T19:22:04;37.15;;;19.70;;
41667;SDS011;27356;50.920;5.350;2023-01-29T19:24:29;37.85;;;20.13;;
41667;SDS011;27356;50.920;5.350;2023-01-29T19:27:00;44.53;;;20.65;;
41667;SDS011;27356;50.920;5.350;2023-01-29T19:29:26;39.60;;;21.33;;
41667;SDS011;27356;50.920;5.350;2023-01-29T19:31:51;35.65;;;20.63;;
41667;SDS011;27356;50.920;5.350;2023-01-29T19:34:17;39.03;;;20.30;;
41667;SDS011;27356;50.920;5.350;2023-01-29T19:36:43;43.35;;;22.63;;
41667;SDS011;27356;50.920;5.350;2023-01-29T19:39:09;43.40;;;22.17;;
41667;SDS011;27356;50.920;5.350;2023-01-29T19:41:35;42.17;;;21.35;;
41667;SDS011;27356;50.920;5.350;2023-01-29T19:44:01;41.90;;;21.30;;
41667;SDS011;27356;50.920;5.350;2023-01-29T19:46:26;41.63;;;22.33;;
41667;SDS011;27356;50.920;5.350;2023-01-29T19:48:54;42.40;;;22.10;;
41667;SDS011;27356;50.920;5.350;2023-01-29T19:51:21;45.15;;;21.88;;
41667;SDS011;27356;50.920;5.350;2023-01-29T19:53:56;50.25;;;23.13;;
41667;SDS011;27356;50.920;5.350;2023-01-29T19:56:23;48.92;;;22.77;;
41667;SDS011;27356;50.920;5.350;2023-01-29T19:58:48;44.38;;;21.92;;
41667;SDS011;27356;50.920;5.350;2023-01-29T20:01:21;47.30;;;24.10;;
41667;SDS011;27356;50.920;5.350;2023-01-29T20:03:48;39.05;;;21.48;;
41667;SDS011;27356;50.920;5.350;2023-01-29T20:06:16;46.42;;;22.45;;
41667;SDS011;27356;50.920;5.350;2023-01-29T20:08:47;44.22;;;22.17;;
41667;SDS011;27356;50.920;5.350;2023-01-29T20:11:14;56.15;;;22.30;;
41667;SDS011;27356;50.920;5.350;2023-01-29T20:13:40;44.70;;;23.45;;
41667;SDS011;27356;50.920;5.350;2023-01-29T20:16:06;43.08;;;22.83;;
41667;SDS011;27356;50.920;5.350;2023-01-29T20:18:32;48.72;;;24.75;;
41667;SDS011;27356;50.920;5.350;2023-01-29T20:20:58;47.40;;;24.42;;
41667;SDS011;27356;50.920;5.350;2023-01-29T20:23:29;46.17;;;24.45;;
41667;SDS011;27356;50.920;5.350;2023-01-29T20:25:57;40.95;;;23.02;;
41667;SDS011;27356;50.920;5.350;2023-01-29T20:28:23;45.05;;;23.90;;
41667;SDS011;27356;50.920;5.350;2023-01-29T20:30:49;48.88;;;23.58;;
41667;SDS011;27356;50.920;5.350;2023-01-29T20:33:19;46.67;;;22.52;;
41667;SDS011;27356;50.920;5.350;2023-01-29T20:35:51;52.53;;;23.98;;
41667;SDS011;27356;50.920;5.350;2023-01-29T20:38:20;47.25;;;22.55;;
41667;SDS011;27356;50.920;5.350;2023-01-29T20:40:45;45.70;;;22.58;;
41667;SDS011;27356;50.920;5.350;2023-01-29T20:43:11;48.88;;;23.70;;
41667;SDS011;27356;50.920;5.350;2023-01-29T20:45:40;45.72;;;22.42;;
41667;SDS011;27356;50.920;5.350;2023-01-29T20:48:06;43.83;;;23.38;;
41667;SDS011;27356;50.920;5.350;2023-01-29T20:50:32;46.72;;;23.88;;
41667;SDS011;27356;50.920;5.350;2023-01-29T20:52:58;44.33;;;24.38;;
41667;SDS011;27356;50.920;5.350;2023-01-29T20:55:24;44.28;;;22.83;;
41667;SDS011;27356;50.920;5.350;2023-01-29T20:57:50;50.60;;;24.02;;
41667;SDS011;27356;50.920;5.350;2023-01-29T21:00:16;43.33;;;23.45;;
41667;SDS011;27356;50.920;5.350;2023-01-29T21:02:42;42.15;;;23.42;;
41667;SDS011;27356;50.920;5.350;2023-01-29T21:05:10;47.45;;;23.88;;
41667;SDS011;27356;50.920;5.350;2023-01-29T21:07:37;48.78;;;25.15;;
41667;SDS011;27356;50.920;5.350;2023-01-29T21:10:07;46.03;;;23.35;;
41667;SDS011;27356;50.920;5.350;2023-01-29T21:12:34;46.10;;;23.85;;
41667;SDS011;27356;50.920;5.350;2023-01-29T21:14:59;50.47;;;25.10;;
41667;SDS011;27356;50.920;5.350;2023-01-29T21:17:25;47.47;;;23.05;;
41667;SDS011;27356;50.920;5.350;2023-01-29T21:19:51;48.97;;;26.08;;
41667;SDS011;27356;50.920;5.350;2023-01-29T21:22:16;46.33;;;23.38;;
41667;SDS011;27356;50.920;5.350;2023-01-29T21:24:42;44.88;;;24.85;;
41667;SDS011;27356;50.920;5.350;2023-01-29T21:27:08;49.83;;;25.10;;
41667;SDS011;27356;50.920;5.350;2023-01-29T21:29:34;44.92;;;23.58;;
41667;SDS011;27356;50.920;5.350;2023-01-29T21:32:00;47.15;;;24.40;;
41667;SDS011;27356;50.920;5.350;2023-01-29T21:34:26;50.58;;;23.77;;
41667;SDS011;27356;50.920;5.350;2023-01-29T21:36:51;44.83;;;24.17;;
41667;SDS011;27356;50.920;5.350;2023-01-29T21:39:17;41.63;;;23.33;;
41667;SDS011;27356;50.920;5.350;2023-01-29T21:41:48;46.08;;;24.00;;
41667;SDS011;27356;50.920;5.350;2023-01-29T21:44:33;48.80;;;25.63;;
41667;SDS011;27356;50.920;5.350;2023-01-29T21:47:02;44.67;;;23.15;;
41667;SDS011;27356;50.920;5.350;2023-01-29T21:49:41;47.72;;;24.83;;
41667;SDS011;27356;50.920;5.350;2023-01-29T21:52:08;42.38;;;23.20;;
41667;SDS011;27356;50.920;5.350;2023-01-29T21:54:36;45.08;;;23.85;;
41667;SDS011;27356;50.920;5.350;2023-01-29T21:57:04;44.55;;;23.88;;
41667;SDS011;27356;50.920;5.350;2023-01-29T21:59:32;45.65;;;21.80;;
41667;SDS011;27356;50.920;5.350;2023-01-29T22:01:59;44.40;;;23.38;;
41667;SDS011;27356;50.920;5.350;2023-01-29T22:04:25;43.05;;;23.33;;
41667;SDS011;27356;50.920;5.350;2023-01-29T22:06:51;43.22;;;23.15;;
41667;SDS011;27356;50.920;5.350;2023-01-29T22:09:17;45.35;;;24.38;;
41667;SDS011;27356;50.920;5.350;2023-01-29T22:11:43;44.53;;;24.05;;
41667;SDS011;27356;50.920;5.350;2023-01-29T22:14:09;44.75;;;23.65;;
41667;SDS011;27356;50.920;5.350;2023-01-29T22:16:35;41.55;;;22.63;;